Kezdőlap
METAR-TAF:

METAR-TAF

Repülőterek :

Brown Field Municipal Airport

San Diego, Kalifornia, Amerikai Egyesült Államok

földrajzi szélesség: 32-34-31N, földrajzi hosszúság: 116-59-35W, magasság: 164 m

Jelenlegi meteorológiai megfigyelések

A jelentés 1 órával és 2 perccel ezelõtt készült, 08:53 UTC
Délnyugati szél 6 kt
Hőmérséklet 14°C
Páratartalom 77%
Légköri nyomás 1015 hPa
Látótávolság: 16.1 km
Borult 2000 lábon

METAR: KSDM 230853Z AUTO 23006KT 10SM OVC020 14/10 A2996 RMK AO2 SLP141 T01440100 56010

Idő: 02:55 (09:55 UTC)


TAF: hiányzik

Meteorológiai megfigyelések és előrejelzések több, mint 4000 repülőtéren (METAR és TAF jelentéseket).

A térképen piros és sárga pontok jelzik az elérhető meteorológiai állomásokat.

Mozgassa az egeret a pont fölött, hogy megjelenjen az állomás neve.

Azután kattintson az időjárási megfigyelések és előrejelzések megtekintéséhez.

A térkép megváltoztatása: kattintson a fekete keresztel jelölt zöld gombra ráközelítéshez, a vonallal jelölt zöld gombra távolításhoz, vagy a zöld nyilakra a szomszédos térképek eléréséhez.


METAR-TAF: